createdAt,value
2023-04-21T00:01:26.241Z,12.65
2023-04-21T00:03:57.248Z,13.32
2023-04-21T00:06:28.715Z,12.25
2023-04-21T00:08:59.404Z,14.20
2023-04-21T00:11:29.973Z,12.18
2023-04-21T00:14:00.611Z,12.95
2023-04-21T00:16:31.131Z,13.48
2023-04-21T00:19:02.420Z,12.70
2023-04-21T00:21:35.426Z,13.13
2023-04-21T00:24:09.511Z,12.35
2023-04-21T00:26:40.230Z,12.18
2023-04-21T00:29:10.741Z,9.98
2023-04-21T00:31:41.375Z,11.15
2023-04-21T00:34:12.003Z,12.50
2023-04-21T00:36:42.531Z,12.43
2023-04-21T00:39:14.198Z,10.10
2023-04-21T00:41:44.772Z,12.23
2023-04-21T00:44:15.554Z,13.78
2023-04-21T00:46:46.119Z,15.32
2023-04-21T00:49:16.862Z,11.28
2023-04-21T00:51:47.630Z,15.72
2023-04-21T00:54:19.502Z,13.43
2023-04-21T00:56:50.147Z,13.95
2023-04-21T00:59:21.315Z,15.28
2023-04-21T01:01:53.011Z,14.35
2023-04-21T01:04:23.684Z,13.05
2023-04-21T01:06:54.251Z,11.18
2023-04-21T01:09:24.832Z,12.50
2023-04-21T01:12:06.407Z,13.43
2023-04-21T01:14:38.833Z,13.18
2023-04-21T01:17:10.464Z,13.68
2023-04-21T01:19:43.613Z,12.37
2023-04-21T01:22:15.390Z,11.80
2023-04-21T01:24:48.039Z,15.88
2023-04-21T01:27:22.321Z,12.63
2023-04-21T01:29:53.881Z,15.00
2023-04-21T01:32:27.564Z,14.87
2023-04-21T01:34:59.304Z,12.13
2023-04-21T01:37:32.268Z,15.10
2023-04-21T01:40:05.627Z,12.40
2023-04-21T01:42:38.730Z,12.47
2023-04-21T01:45:09.721Z,16.27
2023-04-21T01:47:42.129Z,15.90
2023-04-21T01:50:12.824Z,13.03
2023-04-21T01:52:43.386Z,12.45
2023-04-21T01:55:14.975Z,14.45
2023-04-21T01:57:45.442Z,16.60
2023-04-21T02:00:18.790Z,15.32
2023-04-21T02:02:49.617Z,15.28
2023-04-21T02:05:20.501Z,13.90
2023-04-21T02:07:51.404Z,12.93
2023-04-21T02:10:22.455Z,14.35
2023-04-21T02:12:52.996Z,12.63
2023-04-21T02:15:23.452Z,15.03
2023-04-21T02:17:53.992Z,12.20
2023-04-21T02:20:24.589Z,14.50
2023-04-21T02:22:55.159Z,15.18
2023-04-21T02:25:25.691Z,14.43
2023-04-21T02:27:57.305Z,12.58
2023-04-21T02:30:28.285Z,16.00
2023-04-21T02:32:59.686Z,13.70
2023-04-21T02:35:30.222Z,12.43
2023-04-21T02:38:02.409Z,16.23
2023-04-21T02:40:32.922Z,14.90
2023-04-21T02:43:04.345Z,15.88
2023-04-21T02:45:34.919Z,16.60
2023-04-21T02:48:05.741Z,16.05
2023-04-21T02:50:36.783Z,20.08
2023-04-21T02:53:08.190Z,16.10
2023-04-21T02:55:38.714Z,15.50
2023-04-21T02:58:09.317Z,14.47
2023-04-21T03:00:40.369Z,14.05
2023-04-21T03:03:11.543Z,16.05
2023-04-21T03:05:44.980Z,13.62
2023-04-21T03:08:17.280Z,14.83
2023-04-21T03:10:47.773Z,15.28
2023-04-21T03:13:20.416Z,12.90
2023-04-21T03:15:51.501Z,15.83
2023-04-21T03:18:22.123Z,13.48
2023-04-21T03:20:53.890Z,13.88
2023-04-21T03:23:24.432Z,16.05
2023-04-21T03:25:55.621Z,15.45
2023-04-21T03:28:26.297Z,15.88
2023-04-21T03:30:56.984Z,14.43
2023-04-21T03:33:27.695Z,14.98
2023-04-21T03:35:59.893Z,16.02
2023-04-21T03:38:30.838Z,16.93
2023-04-21T03:41:01.301Z,14.47
2023-04-21T03:43:33.250Z,14.33
2023-04-21T03:46:06.739Z,13.88
2023-04-21T03:48:37.458Z,15.88
2023-04-21T03:51:09.077Z,14.45
2023-04-21T03:53:39.998Z,13.22
2023-04-21T03:56:11.102Z,20.23
2023-04-21T03:58:41.721Z,15.53
2023-04-21T04:01:12.652Z,14.15
2023-04-21T04:03:44.265Z,15.23
2023-04-21T04:06:14.934Z,16.00
2023-04-21T04:08:46.370Z,15.15
2023-04-21T04:11:17.034Z,13.95
2023-04-21T04:13:47.734Z,14.60
2023-04-21T04:16:19.727Z,14.13
2023-04-21T04:18:53.437Z,15.65
2023-04-21T04:21:26.392Z,13.90
2023-04-21T04:23:57.714Z,15.25
2023-04-21T04:26:31.484Z,16.45
2023-04-21T04:29:02.470Z,15.75
2023-04-21T04:31:33.346Z,16.20
2023-04-21T04:34:04.976Z,14.70
2023-04-21T04:36:35.562Z,14.83
2023-04-21T04:39:08.298Z,15.10
2023-04-21T04:41:38.986Z,16.05
2023-04-21T04:44:11.208Z,16.05
2023-04-21T04:46:42.988Z,14.50
2023-04-21T04:49:15.218Z,14.50
2023-04-21T04:51:45.798Z,15.88
2023-04-21T04:54:18.389Z,15.65
2023-04-21T04:56:49.188Z,13.90
2023-04-21T04:59:19.722Z,15.70
2023-04-21T05:01:50.392Z,19.02
2023-04-21T05:04:21.519Z,14.28
2023-04-21T05:06:53.230Z,16.05
2023-04-21T05:09:23.825Z,15.68
2023-04-21T05:11:56.811Z,13.95
2023-04-21T05:14:28.428Z,13.98
2023-04-21T05:17:01.454Z,14.25
2023-04-21T05:19:31.895Z,15.43
2023-04-21T05:22:02.457Z,14.05
2023-04-21T05:24:34.095Z,13.28
2023-04-21T05:27:04.827Z,13.45
2023-04-21T05:29:37.435Z,13.65
2023-04-21T05:32:07.801Z,13.43
2023-04-21T05:34:38.603Z,13.98
2023-04-21T05:37:11.898Z,15.48
2023-04-21T05:39:42.737Z,16.57
2023-04-21T05:42:14.920Z,14.28
2023-04-21T05:44:45.952Z,17.45
2023-04-21T05:47:16.671Z,13.68
2023-04-21T05:49:48.956Z,16.48
2023-04-21T05:52:19.483Z,13.93
2023-04-21T05:54:50.347Z,13.85
2023-04-21T05:57:20.857Z,13.70
2023-04-21T05:59:51.818Z,14.83
2023-04-21T06:02:23.676Z,14.03
2023-04-21T06:04:55.805Z,12.90
2023-04-21T06:07:28.394Z,14.53
2023-04-21T06:09:58.563Z,13.80
2023-04-21T06:12:29.306Z,15.72
2023-04-21T06:15:00.041Z,14.93
2023-04-21T06:17:30.925Z,13.40
2023-04-21T06:20:01.631Z,13.25
2023-04-21T06:22:33.057Z,13.85
2023-04-21T06:25:03.658Z,13.35
2023-04-21T06:27:34.591Z,13.25
2023-04-21T06:30:07.841Z,13.65
2023-04-21T06:32:38.459Z,13.03
2023-04-21T06:35:10.033Z,13.32
2023-04-21T06:37:41.961Z,13.78
2023-04-21T06:40:15.390Z,13.45
2023-04-21T06:42:46.228Z,14.13
2023-04-21T06:45:17.230Z,14.15
2023-04-21T06:47:49.328Z,16.70
2023-04-21T06:50:21.374Z,17.23
2023-04-21T06:52:52.116Z,16.52
2023-04-21T06:55:22.653Z,16.10
2023-04-21T06:57:55.463Z,18.82
2023-04-21T07:00:25.988Z,18.12
2023-04-21T07:02:56.782Z,13.43
2023-04-21T07:05:31.091Z,13.98
2023-04-21T07:08:02.655Z,15.85
2023-04-21T07:10:33.420Z,13.58
2023-04-21T07:13:08.788Z,13.78
2023-04-21T07:15:39.566Z,16.95
2023-04-21T07:18:10.534Z,16.10
2023-04-21T07:20:41.722Z,17.02
2023-04-21T07:23:12.413Z,17.70
2023-04-21T07:25:43.070Z,17.10
2023-04-21T07:28:15.346Z,15.80
2023-04-21T07:30:46.032Z,15.20
2023-04-21T07:33:16.719Z,16.52
2023-04-21T07:35:47.331Z,19.12
2023-04-21T07:38:19.372Z,14.73
2023-04-21T07:40:50.015Z,18.87
2023-04-21T07:43:23.187Z,16.85
2023-04-21T07:45:54.057Z,14.23
2023-04-21T07:48:26.072Z,15.98
2023-04-21T07:50:58.333Z,13.70
2023-04-21T07:53:28.845Z,15.32
2023-04-21T07:55:59.807Z,13.53
2023-04-21T07:58:30.375Z,14.95
2023-04-21T08:01:00.967Z,14.78
2023-04-21T08:03:31.755Z,13.10
2023-04-21T08:06:03.417Z,15.58
2023-04-21T08:08:34.379Z,15.30
2023-04-21T08:11:04.998Z,12.85
2023-04-21T08:13:36.261Z,15.28
2023-04-21T08:19:33.277Z,14.53
2023-04-21T08:22:05.278Z,13.25
2023-04-21T08:24:38.702Z,14.55
2023-04-21T08:27:10.066Z,13.45
2023-04-21T08:29:40.907Z,12.28
2023-04-21T08:32:13.355Z,12.03
2023-04-21T08:34:45.867Z,11.93
2023-04-21T08:37:16.586Z,12.05
2023-04-21T08:39:48.209Z,12.53
2023-04-21T08:42:19.541Z,12.82
2023-04-21T08:44:51.896Z,14.78
2023-04-21T08:47:26.802Z,14.93
2023-04-21T08:50:00.451Z,14.10
2023-04-21T08:52:32.537Z,14.68
2023-04-21T08:55:03.842Z,13.28
2023-04-21T08:57:34.799Z,13.85
2023-04-21T09:00:08.083Z,11.10
2023-04-21T09:02:57.205Z,11.70
2023-04-21T09:05:26.779Z,14.68
2023-04-21T09:08:14.634Z,11.60
2023-04-21T09:10:47.586Z,10.82
2023-04-21T09:13:20.328Z,11.73
2023-04-21T09:15:54.957Z,13.32
2023-04-21T09:18:28.667Z,11.63
2023-04-21T09:21:17.341Z,12.07
2023-04-21T09:23:50.886Z,14.10
2023-04-21T09:26:25.936Z,11.53
2023-04-21T09:28:56.618Z,14.07
2023-04-21T09:31:29.259Z,12.35
2023-04-21T09:34:01.709Z,14.70
2023-04-21T09:36:32.572Z,13.50
2023-04-21T09:41:37.149Z,12.65
2023-04-21T09:44:07.907Z,12.18
2023-04-21T09:46:38.757Z,11.40
2023-04-21T09:49:12.544Z,10.63
2023-04-21T09:52:10.389Z,10.60
2023-04-21T09:54:36.645Z,11.63
2023-04-21T09:57:06.926Z,10.90
2023-04-21T09:59:39.107Z,11.20
2023-04-21T10:02:10.536Z,10.43
2023-04-21T10:04:43.389Z,11.68
2023-04-21T10:07:14.429Z,11.60
2023-04-21T10:09:48.391Z,11.22
2023-04-21T10:12:20.859Z,11.08
2023-04-21T10:14:55.579Z,12.05
2023-04-21T10:17:27.536Z,10.75
2023-04-21T10:19:59.718Z,10.53
2023-04-21T10:22:39.789Z,10.08
2023-04-21T10:25:11.580Z,10.28
2023-04-21T10:27:44.374Z,13.30
2023-04-21T10:30:26.826Z,10.95
2023-04-21T10:33:07.240Z,9.90
2023-04-21T10:36:01.268Z,9.10
2023-04-21T10:38:45.017Z,8.93
2023-04-21T10:41:33.149Z,9.55
2023-04-21T10:44:21.170Z,9.50
2023-04-21T10:46:53.467Z,12.23
2023-04-21T10:49:31.358Z,11.25
2023-04-21T10:52:03.807Z,10.00
2023-04-21T10:54:58.813Z,9.00
2023-04-21T10:57:32.543Z,11.20
2023-04-21T11:00:05.614Z,10.00
2023-04-21T11:02:38.671Z,10.32
2023-04-21T11:05:12.338Z,9.18
2023-04-21T11:07:45.270Z,14.05
2023-04-21T11:10:15.823Z,10.43
2023-04-21T11:12:46.320Z,9.28
2023-04-21T11:15:16.947Z,9.95
2023-04-21T11:17:48.506Z,9.40
2023-04-21T11:20:19.149Z,9.28
2023-04-21T11:22:53.770Z,12.23
2023-04-21T11:25:24.474Z,8.83
2023-04-21T11:27:58.541Z,8.58
2023-04-21T11:30:35.841Z,8.78
2023-04-21T11:33:07.256Z,9.60
2023-04-21T11:35:40.956Z,8.95
2023-04-21T11:38:13.179Z,9.40
2023-04-21T11:40:51.829Z,9.03
2023-04-21T11:43:22.870Z,9.05
2023-04-21T11:45:53.401Z,9.25
2023-04-21T11:48:25.083Z,9.78
2023-04-21T11:50:55.663Z,9.00
2023-04-21T11:53:28.926Z,10.35
2023-04-21T11:55:58.993Z,9.63
2023-04-21T11:58:30.309Z,11.00
2023-04-21T12:01:04.012Z,10.93
2023-04-21T12:03:34.762Z,8.90
2023-04-21T12:06:07.506Z,8.73
2023-04-21T12:08:42.578Z,8.83
2023-04-21T12:11:15.006Z,10.40
2023-04-21T12:13:46.535Z,8.78
2023-04-21T12:16:17.332Z,8.78
2023-04-21T12:18:49.921Z,13.30
2023-04-21T12:21:21.046Z,8.00
2023-04-21T12:23:51.545Z,12.00
2023-04-21T12:26:24.205Z,9.05
2023-04-21T12:28:55.586Z,8.98
2023-04-21T12:31:26.173Z,8.80
2023-04-21T12:33:57.669Z,10.60
2023-04-21T12:36:30.378Z,8.73
2023-04-21T12:39:01.037Z,10.20
2023-04-21T12:41:31.867Z,8.00
2023-04-21T12:44:02.554Z,9.00
2023-04-21T12:46:39.091Z,10.48
2023-04-21T12:49:11.751Z,8.65
2023-04-21T12:51:42.423Z,10.15
2023-04-21T12:54:13.984Z,10.13
2023-04-21T12:56:44.936Z,7.97
2023-04-21T12:59:15.766Z,8.70
2023-04-21T13:01:46.663Z,10.23
2023-04-21T13:04:19.550Z,10.32
2023-04-21T13:06:50.257Z,8.08
2023-04-21T13:09:20.967Z,7.67
2023-04-21T13:11:51.745Z,7.90
2023-04-21T13:14:22.290Z,8.90
2023-04-21T13:16:53.515Z,8.50
2023-04-21T13:19:25.758Z,8.33
2023-04-21T13:21:56.552Z,9.78
2023-04-21T13:24:29.244Z,8.28
2023-04-21T13:27:02.745Z,7.55
2023-04-21T13:29:35.124Z,7.50
2023-04-21T13:32:07.902Z,8.38
2023-04-21T13:34:38.585Z,7.65
2023-04-21T13:37:10.903Z,7.87
2023-04-21T13:39:41.597Z,7.53
2023-04-21T13:42:14.209Z,7.67
2023-04-21T13:44:44.856Z,7.90
2023-04-21T13:47:17.098Z,8.43
2023-04-21T13:49:53.382Z,8.03
2023-04-21T13:52:24.135Z,8.35
2023-04-21T13:54:59.084Z,8.03
2023-04-21T13:57:29.737Z,7.78
2023-04-21T14:00:01.598Z,9.28
2023-04-21T14:02:33.234Z,7.92
2023-04-21T14:05:04.712Z,8.73
2023-04-21T14:07:37.395Z,9.08
2023-04-21T14:10:13.475Z,8.28
2023-04-21T14:12:45.299Z,7.78
2023-04-21T14:15:16.894Z,10.20
2023-04-21T14:17:48.268Z,8.00
2023-04-21T14:20:19.103Z,9.55
2023-04-21T14:22:50.906Z,8.28
2023-04-21T14:25:21.470Z,8.10
2023-04-21T14:27:51.985Z,9.40
2023-04-21T14:30:23.708Z,8.58
2023-04-21T14:33:18.333Z,7.70
2023-04-21T14:35:49.357Z,8.30
2023-04-21T14:38:21.590Z,8.23
2023-04-21T14:40:54.092Z,8.58
2023-04-21T14:43:24.727Z,8.20
2023-04-21T14:45:55.541Z,7.53
2023-04-21T14:48:27.835Z,7.97
2023-04-21T14:51:00.912Z,8.43
2023-04-21T14:53:35.899Z,10.03
2023-04-21T14:56:08.758Z,7.40
2023-04-21T14:58:40.614Z,7.97
2023-04-21T15:01:11.331Z,7.58
2023-04-21T15:03:42.733Z,9.75
2023-04-21T15:06:13.918Z,7.65
2023-04-21T15:08:47.209Z,7.40
2023-04-21T15:11:17.873Z,8.85
2023-04-21T15:13:48.572Z,7.60
2023-04-21T15:16:20.067Z,8.78
2023-04-21T15:18:52.233Z,7.67
2023-04-21T15:21:23.304Z,7.45
2023-04-21T15:23:55.558Z,9.45
2023-04-21T15:26:26.920Z,7.50
2023-04-21T15:28:57.904Z,7.35
2023-04-21T15:31:29.981Z,7.70
2023-04-21T15:34:02.150Z,7.45
2023-04-21T15:36:33.060Z,7.45
2023-04-21T15:39:04.014Z,8.30
2023-04-21T15:41:35.943Z,7.50
2023-04-21T15:44:07.501Z,7.22
2023-04-21T15:46:38.194Z,7.67
2023-04-21T15:49:08.884Z,8.98
2023-04-21T15:51:42.194Z,7.05
2023-04-21T15:54:12.880Z,7.95
2023-04-21T15:56:44.518Z,7.22
2023-04-21T15:59:19.063Z,7.80
2023-04-21T16:01:51.480Z,8.00
2023-04-21T16:04:26.674Z,7.60
2023-04-21T16:07:02.208Z,7.55
2023-04-21T16:09:33.250Z,8.85
2023-04-21T16:12:05.862Z,7.62
2023-04-21T16:14:51.259Z,7.10
2023-04-21T16:17:11.659Z,6.90
2023-04-21T16:19:46.133Z,7.62
2023-04-21T16:22:18.979Z,7.65
2023-04-21T16:24:50.920Z,6.70
2023-04-21T16:27:23.159Z,7.35
2023-04-21T16:29:56.021Z,6.92
2023-04-21T16:32:28.775Z,6.55
2023-04-21T16:34:59.915Z,8.18
2023-04-21T16:37:30.937Z,6.90
2023-04-21T16:40:06.198Z,7.30
2023-04-21T16:42:37.380Z,7.58
2023-04-21T16:45:08.856Z,7.37
2023-04-21T16:47:42.529Z,7.15
2023-04-21T16:50:14.840Z,8.08
2023-04-21T16:52:47.127Z,7.40
2023-04-21T16:55:19.670Z,6.55
2023-04-21T16:57:50.457Z,7.40
2023-04-21T17:00:21.666Z,6.60
2023-04-21T17:02:53.587Z,7.00
2023-04-21T17:05:24.990Z,6.62
2023-04-21T17:07:55.978Z,7.42
2023-04-21T17:10:27.217Z,6.95
2023-04-21T17:12:57.848Z,7.00
2023-04-21T17:15:30.441Z,6.70
2023-04-21T17:18:02.897Z,6.78
2023-04-21T17:20:35.072Z,6.95
2023-04-21T17:23:06.404Z,6.37
2023-04-21T17:25:39.175Z,6.53
2023-04-21T17:28:14.348Z,7.30
2023-04-21T17:30:46.064Z,6.30
2023-04-21T17:33:17.753Z,6.42
2023-04-21T17:36:02.137Z,6.47
2023-04-21T17:38:21.129Z,7.47
2023-04-21T17:40:52.127Z,6.65
2023-04-21T17:43:23.643Z,6.72
2023-04-21T17:45:55.273Z,6.67
2023-04-21T17:48:27.649Z,7.62
2023-04-21T17:50:58.930Z,6.75
2023-04-21T17:53:29.686Z,6.90
2023-04-21T17:56:02.222Z,6.10
2023-04-21T17:58:35.661Z,6.20
2023-04-21T18:01:07.164Z,6.72
2023-04-21T18:03:40.473Z,6.33
2023-04-21T18:06:13.534Z,6.35
2023-04-21T18:08:46.226Z,6.50
2023-04-21T18:11:18.378Z,7.35
2023-04-21T18:13:48.904Z,8.00
2023-04-21T18:16:21.892Z,6.62
2023-04-21T18:18:52.457Z,6.40
2023-04-21T18:21:24.376Z,6.50
2023-04-21T18:23:57.778Z,6.97
2023-04-21T18:26:28.282Z,6.95
2023-04-21T18:28:58.769Z,6.30
2023-04-21T18:31:30.132Z,8.90
2023-04-21T18:34:01.309Z,6.67
2023-04-21T18:36:33.279Z,6.22
2023-04-21T18:39:04.700Z,8.65
2023-04-21T18:41:35.498Z,6.85
2023-04-21T18:44:06.118Z,6.50
2023-04-21T18:46:36.892Z,7.33
2023-04-21T18:49:07.633Z,7.67
2023-04-21T18:51:38.236Z,6.42
2023-04-21T18:54:09.170Z,7.85
2023-04-21T18:56:40.006Z,6.80
2023-04-21T18:59:12.036Z,6.65
2023-04-21T19:01:42.829Z,6.22
2023-04-21T19:04:14.273Z,6.12
2023-04-21T19:06:45.059Z,6.30
2023-04-21T19:09:15.708Z,5.90
2023-04-21T19:11:47.264Z,7.67
2023-04-21T19:14:19.334Z,6.95
2023-04-21T19:16:51.828Z,7.67
2023-04-21T19:19:22.675Z,6.08
2023-04-21T19:21:53.383Z,7.42
2023-04-21T19:24:24.093Z,5.95
2023-04-21T19:26:56.886Z,6.35
2023-04-21T19:29:27.455Z,6.00
2023-04-21T19:31:57.968Z,6.47
2023-04-21T19:34:28.444Z,7.15
2023-04-21T19:36:59.219Z,6.90
2023-04-21T19:39:30.878Z,6.17
2023-04-21T19:42:01.415Z,6.10
2023-04-21T19:44:32.034Z,6.65
2023-04-21T19:47:03.392Z,7.75
2023-04-21T19:49:33.855Z,6.22
2023-04-21T19:52:04.322Z,5.92
2023-04-21T19:54:36.389Z,7.15
2023-04-21T19:57:07.099Z,6.05
2023-04-21T19:59:38.050Z,6.97
2023-04-21T20:02:09.503Z,6.75
2023-04-21T20:04:40.371Z,6.83
2023-04-21T20:07:10.902Z,6.20
2023-04-21T20:09:41.517Z,6.58
2023-04-21T20:12:12.151Z,6.75
2023-04-21T20:14:43.124Z,6.45
2023-04-21T20:17:13.887Z,8.00
2023-04-21T20:19:46.336Z,6.90
2023-04-21T20:22:16.889Z,7.08
2023-04-21T20:24:47.404Z,7.10
2023-04-21T20:27:17.883Z,7.65
2023-04-21T20:29:48.515Z,6.25
2023-04-21T20:32:19.278Z,6.10
2023-04-21T20:34:51.744Z,8.38
2023-04-21T20:37:23.111Z,6.97
2023-04-21T20:39:53.991Z,8.13
2023-04-21T20:42:25.250Z,6.72
2023-04-21T20:44:55.870Z,7.37
2023-04-21T20:47:26.381Z,7.08
2023-04-21T20:49:59.314Z,7.28
2023-04-21T20:52:29.935Z,8.53
2023-04-21T20:55:00.449Z,6.90
2023-04-21T20:57:31.285Z,7.20
2023-04-21T21:00:02.115Z,6.75
2023-04-21T21:02:34.203Z,7.22
2023-04-21T21:05:04.982Z,10.38
2023-04-21T21:07:36.869Z,9.15
2023-04-21T21:10:08.152Z,8.38
2023-04-21T21:12:38.761Z,8.58
2023-04-21T21:15:10.074Z,7.00
2023-04-21T21:17:41.267Z,7.30
2023-04-21T21:20:12.428Z,6.70
2023-04-21T21:22:43.231Z,7.08
2023-04-21T21:25:13.752Z,7.67
2023-04-21T21:27:44.414Z,10.80
2023-04-21T21:30:15.113Z,7.65
2023-04-21T21:32:46.524Z,7.62
2023-04-21T21:35:17.105Z,7.95
2023-04-21T21:37:48.087Z,9.73
2023-04-21T21:40:18.548Z,7.85
2023-04-21T21:42:49.127Z,8.08
2023-04-21T21:45:19.591Z,7.22
2023-04-21T21:47:51.068Z,7.90
2023-04-21T21:50:21.702Z,9.25
2023-04-21T21:52:52.361Z,9.68
2023-04-21T21:55:23.088Z,8.40
2023-04-21T21:57:54.170Z,9.63
2023-04-21T22:00:26.503Z,9.40
2023-04-21T22:02:57.370Z,7.92
2023-04-21T22:05:29.019Z,7.67
2023-04-21T22:07:59.666Z,11.48
2023-04-21T22:10:30.109Z,7.47
2023-04-21T22:13:00.846Z,9.25
2023-04-21T22:15:31.186Z,10.85
2023-04-21T22:18:02.132Z,8.75
2023-04-21T22:20:33.232Z,7.62
2023-04-21T22:23:04.875Z,8.15
2023-04-21T22:25:35.456Z,9.60
2023-04-21T22:28:09.980Z,8.08
2023-04-21T22:30:43.313Z,9.00
2023-04-21T22:33:15.542Z,9.98
2023-04-21T22:35:46.086Z,8.80
2023-04-21T22:38:19.955Z,8.68
2023-04-21T22:40:50.840Z,8.43
2023-04-21T22:43:21.457Z,8.40
2023-04-21T22:45:53.593Z,8.00
2023-04-21T22:48:26.303Z,9.83
2023-04-21T22:50:57.336Z,10.00
2023-04-21T22:53:31.356Z,7.53
2023-04-21T22:56:05.438Z,9.60
2023-04-21T22:58:37.708Z,9.70
2023-04-21T23:01:09.436Z,10.15
2023-04-21T23:03:40.188Z,10.08
2023-04-21T23:06:11.034Z,8.80
2023-04-21T23:08:42.944Z,7.95
2023-04-21T23:11:15.033Z,8.23
2023-04-21T23:13:45.810Z,9.88
2023-04-21T23:16:21.297Z,8.08
2023-04-21T23:18:51.978Z,7.95
2023-04-21T23:21:22.551Z,9.20
2023-04-21T23:23:54.267Z,8.33
2023-04-21T23:26:26.712Z,8.65
2023-04-21T23:29:00.163Z,10.00
2023-04-21T23:31:32.025Z,8.65
2023-04-21T23:34:03.003Z,8.85
2023-04-21T23:36:33.558Z,8.65
2023-04-21T23:39:05.474Z,9.80
2023-04-21T23:41:36.109Z,7.92
2023-04-21T23:44:06.785Z,8.03
2023-04-21T23:46:37.778Z,7.28
2023-04-21T23:49:08.797Z,7.30
2023-04-21T23:51:40.790Z,9.48
2023-04-21T23:54:13.343Z,7.58
2023-04-21T23:56:43.934Z,8.30
2023-04-21T23:59:16.435Z,7.75
